Majesty of the Seas — C6FZ8 — position and weather

sailwx.info

Track history (hours):
 
Tides and Currents Weather Stations Pressure Air Temp Water Temp Dewpoint Dewpoint Depression Visibility Wind Speed Wind Dir Waves Ship Positions

Majesty of the Seas (Bahamas)

Last reported at 2019-Sep-21 10:58 UTC. Time now 2019-Sep-21 11:30 UTC.
Position N 26°05' W 080°07'.

Length 268 m; draft 8 m.

Type: Ship. MMSI: 311734000.

Date/timePositionNaut miles runAvg speedWind from/ knotsBaromVisibWave heightAir tempDewpointWater temp
2019-Sep-21 10:58N 26°05' W 080°07'0 0.4
2019-Sep-21 10:30N 26°05' W 080°07'4 7.3
2019-Sep-21 10:00N 26°06' W 080°03'510.8
2019-Sep-21 09:30N 26°06' W 079°57'612.4
2019-Sep-21 09:00N 26°08' W 079°50'713.1
2019-Sep-21 08:30N 26°10' W 079°43'713.3
2019-Sep-21 08:00N 26°12' W 079°36'713.9
2019-Sep-21 07:30N 26°13' W 079°29'31 1.0
2019-Sep-20 00:00N 26°12' W 078°54'3712.4 050 / 301013.310.8 26.026.030.0
2019-Sep-19 20:59N 25°59' W 079°33'4 9.0
2019-Sep-19 20:30N 25°55' W 079°35'5 9.6
2019-Sep-19 20:00N 25°50' W 079°37'5 9.8
2019-Sep-19 19:30N 25°46' W 079°37'5 9.5
2019-Sep-19 19:00N 25°41' W 079°37'5 9.7
2019-Sep-19 18:30N 25°36' W 079°38'5 9.6
2019-Sep-19 18:00N 25°31' W 079°38'5 9.7
2019-Sep-19 17:30N 25°26' W 079°38'129 7.3
2019-Sep-19 00:00N 24°24' W 081°42'61 2.6 050 / 101012.210.8 28.028.031.0
2019-Sep-18 00:00N 24°12' W 080°36'46 5.7 330 / 101012.110.8 28.028.032.0
2019-Sep-17 15:49N 24°35' W 079°52'4 7.3
2019-Sep-17 15:19N 24°37' W 079°48'12 6.7
2019-Sep-17 13:31N 24°49' W 079°44'0 6.7
2019-Sep-17 13:30N 24°49' W 079°44'43 6.2
2019-Sep-17 06:30N 25°32' W 079°38'3 5.3
2019-Sep-17 06:00N 25°34' W 079°38'3 5.2
2019-Sep-17 05:30N 25°37' W 079°38'3 5.1
2019-Sep-17 05:00N 25°40' W 079°38'3 5.2
2019-Sep-17 04:31N 25°42' W 079°38'3 5.2
2019-Sep-17 04:00N 25°45' W 079°38'3 5.1
2019-Sep-17 03:30N 25°47' W 079°38'3 5.1
2019-Sep-17 03:01N 25°50' W 079°37'3 5.1
2019-Sep-17 02:30N 25°52' W 079°37'3 5.0
2019-Sep-17 02:00N 25°55' W 079°38'2 4.9
2019-Sep-17 01:30N 25°57' W 079°38'2 4.9
2019-Sep-17 01:00N 25°60' W 079°38'2 4.9
2019-Sep-17 00:30N 26°02' W 079°39'2 5.0
2019-Sep-17 00:00N 26°04' W 079°41'6490.6
2019-Sep-17 00:00N 26°00' W 079°36'816.7 020 / 111012.610.8 29.026.231.0
2019-Sep-16 23:30N 26°06' W 079°42'2 4.9
2019-Sep-16 23:00N 26°08' W 079°44'3 6.8
2019-Sep-16 22:30N 26°07' W 079°48'3 6.8
2019-Sep-16 22:00N 26°07' W 079°51'4 7.2
2019-Sep-16 21:30N 26°07' W 079°55'4 7.5
2019-Sep-16 21:00N 26°06' W 079°59'4 7.5
2019-Sep-16 20:30N 26°05' W 080°04'3 6.3
2019-Sep-16 20:00N 26°05' W 080°07'0 0.1
2019-Sep-16 19:23N 26°05' W 080°07'0 0.0
2019-Sep-16 18:59N 26°05' W 080°07'0 0.0
2019-Sep-16 18:29N 26°05' W 080°07'0 0.0
2019-Sep-16 17:59N 26°05' W 080°07'0 0.0
2019-Sep-16 17:29N 26°05' W 080°07'0 0.0
2019-Sep-16 16:59N 26°05' W 080°07'0 0.0
2019-Sep-16 16:29N 26°05' W 080°07'0 0.0
2019-Sep-16 15:59N 26°05' W 080°07'0 0.0
2019-Sep-16 15:29N 26°05' W 080°07'0 0.0
2019-Sep-16 14:59N 26°05' W 080°07'0 0.0
2019-Sep-16 14:29N 26°05' W 080°07'0 0.0
2019-Sep-16 13:59N 26°05' W 080°07'0 0.0
2019-Sep-16 13:29N 26°05' W 080°07'0 0.0
2019-Sep-16 12:59N 26°05' W 080°07'0 0.0
2019-Sep-16 12:29N 26°05' W 080°07'0 0.0
2019-Sep-16 11:59N 26°05' W 080°07'0 0.0
2019-Sep-16 11:29N 26°05' W 080°07'0 0.0
2019-Sep-16 10:59N 26°05' W 080°07'0 0.7
2019-Sep-16 10:30N 26°06' W 080°07'4 8.7
2019-Sep-16 10:01N 26°05' W 080°02'714.8
2019-Sep-16 09:31N 25°60' W 079°56'815.1
2019-Sep-16 09:00N 25°54' W 079°51'816.7
2019-Sep-16 08:30N 25°46' W 079°48'917.4
2019-Sep-16 08:00N 25°38' W 079°46'917.9
2019-Sep-16 07:30N 25°29' W 079°45'917.6
2019-Sep-16 07:00N 25°20' W 079°46'  
2019-Sep-13 23:49N 20°27' W 087°02'310.0
2019-Sep-13 23:30N 20°29' W 086°60'1 2.3
2019-Sep-13 22:59N 20°29' W 086°59'0 0.0
2019-Sep-13 22:29N 20°29' W 086°59'0 0.0
2019-Sep-13 21:59N 20°29' W 086°59'0 0.0
2019-Sep-13 21:26N 20°29' W 086°59'0 0.0
2019-Sep-13 20:59N 20°29' W 086°59'0 0.0
2019-Sep-13 20:26N 20°29' W 086°59'0 0.0
2019-Sep-13 19:59N 20°29' W 086°59'0 0.0
2019-Sep-13 19:26N 20°29' W 086°59'0 0.0
2019-Sep-13 18:59N 20°29' W 086°59'0 0.0
2019-Sep-13 18:26N 20°29' W 086°59'0 0.0
2019-Sep-13 17:59N 20°29' W 086°59'0 0.0
2019-Sep-13 17:29N 20°29' W 086°59'0 0.0
2019-Sep-13 16:59N 20°29' W 086°59'0 0.0
2019-Sep-13 16:26N 20°29' W 086°59'0 0.0
2019-Sep-13 15:56N 20°29' W 086°59'0 0.0
2019-Sep-13 15:29N 20°29' W 086°59'0 0.0
2019-Sep-13 14:59N 20°29' W 086°59'0 0.0
2019-Sep-13 14:29N 20°29' W 086°59'0 0.0
2019-Sep-13 13:59N 20°29' W 086°59'0 0.0
2019-Sep-13 13:26N 20°29' W 086°59'0 0.0
2019-Sep-13 12:59N 20°29' W 086°59'0 0.0
2019-Sep-13 12:29N 20°29' W 086°59'0 0.0
2019-Sep-13 11:59N 20°29' W 086°59'0 0.1
2019-Sep-13 11:30N 20°29' W 086°59'3 6.8
2019-Sep-13 11:00N 20°32' W 086°59'611.7
2019-Sep-13 10:30N 20°37' W 086°55'49214.0
2019-Sep-11 23:20N 25°31' W 079°46'413.1
2019-Sep-11 23:00N 25°35' W 079°46'613.2
2019-Sep-11 22:30N 25°42' W 079°47'714.0
2019-Sep-11 22:01N 25°48' W 079°51'714.2
2019-Sep-11 21:31N 25°54' W 079°55'714.6
2019-Sep-11 21:00N 26°00' W 079°60'713.3
2019-Sep-11 20:30N 26°05' W 080°05'2 4.7
2019-Sep-11 20:00N 26°05' W 080°07'0 0.0
2019-Sep-11 19:28N 26°05' W 080°07'0 0.0
2019-Sep-11 18:58N 26°05' W 080°07'0 0.0
2019-Sep-11 18:28N 26°05' W 080°07'0 0.0
2019-Sep-11 17:58N 26°05' W 080°07'0 0.0
2019-Sep-11 17:28N 26°05' W 080°07'0 0.0
2019-Sep-11 16:58N 26°05' W 080°07'0 0.0
2019-Sep-11 16:28N 26°05' W 080°07'0 0.0
2019-Sep-11 15:58N 26°05' W 080°07'0 0.0
2019-Sep-11 15:28N 26°05' W 080°07'0 0.0
2019-Sep-11 14:58N 26°05' W 080°07'0 0.0
2019-Sep-11 14:28N 26°05' W 080°07'0 0.0
2019-Sep-11 13:58N 26°05' W 080°07'0 0.0
2019-Sep-11 13:28N 26°05' W 080°07'0 0.0
2019-Sep-11 12:58N 26°05' W 080°07'0 0.0
2019-Sep-11 12:28N 26°05' W 080°07'0 0.0
2019-Sep-11 11:58N 26°05' W 080°07'0 0.0
2019-Sep-11 11:25N 26°05' W 080°07'0 0.0
2019-Sep-11 10:58N 26°05' W 080°07'  
Track history (hours):
 
Tides and Currents Weather Stations Pressure Air Temp Water Temp Dewpoint Dewpoint Depression Visibility Wind Speed Wind Dir Waves Ship Positions

Majesty of the Seas (Bahamas)

Last reported at 2019-Sep-21 10:58 UTC. Time now 2019-Sep-21 11:30 UTC.
Position N 26°05' W 080°07'.

Length 268 m; draft 8 m.

Type: Ship. MMSI: 311734000.

Date/timePositionNaut miles runAvg speedWind from/ knotsBaromVisibWave heightAir tempDewpointWater temp
2019-Sep-21 10:58N 26°05' W 080°07'0 0.4
2019-Sep-21 10:30N 26°05' W 080°07'4 7.3
2019-Sep-21 10:00N 26°06' W 080°03'510.8
2019-Sep-21 09:30N 26°06' W 079°57'612.4
2019-Sep-21 09:00N 26°08' W 079°50'713.1
2019-Sep-21 08:30N 26°10' W 079°43'713.3
2019-Sep-21 08:00N 26°12' W 079°36'713.9
2019-Sep-21 07:30N 26°13' W 079°29'31 1.0
2019-Sep-20 00:00N 26°12' W 078°54'3712.4 050 / 301013.310.8 26.026.030.0
2019-Sep-19 20:59N 25°59' W 079°33'4 9.0
2019-Sep-19 20:30N 25°55' W 079°35'5 9.6
2019-Sep-19 20:00N 25°50' W 079°37'5 9.8
2019-Sep-19 19:30N 25°46' W 079°37'5 9.5
2019-Sep-19 19:00N 25°41' W 079°37'5 9.7
2019-Sep-19 18:30N 25°36' W 079°38'5 9.6
2019-Sep-19 18:00N 25°31' W 079°38'5 9.7
2019-Sep-19 17:30N 25°26' W 079°38'129 7.3
2019-Sep-19 00:00N 24°24' W 081°42'61 2.6 050 / 101012.210.8 28.028.031.0
2019-Sep-18 00:00N 24°12' W 080°36'46 5.7 330 / 101012.110.8 28.028.032.0
2019-Sep-17 15:49N 24°35' W 079°52'4 7.3
2019-Sep-17 15:19N 24°37' W 079°48'12 6.7
2019-Sep-17 13:31N 24°49' W 079°44'0 6.7
2019-Sep-17 13:30N 24°49' W 079°44'43 6.2
2019-Sep-17 06:30N 25°32' W 079°38'3 5.3
2019-Sep-17 06:00N 25°34' W 079°38'3 5.2
2019-Sep-17 05:30N 25°37' W 079°38'3 5.1
2019-Sep-17 05:00N 25°40' W 079°38'3 5.2
2019-Sep-17 04:31N 25°42' W 079°38'3 5.2
2019-Sep-17 04:00N 25°45' W 079°38'3 5.1
2019-Sep-17 03:30N 25°47' W 079°38'3 5.1
2019-Sep-17 03:01N 25°50' W 079°37'3 5.1
2019-Sep-17 02:30N 25°52' W 079°37'3 5.0
2019-Sep-17 02:00N 25°55' W 079°38'2 4.9
2019-Sep-17 01:30N 25°57' W 079°38'2 4.9
2019-Sep-17 01:00N 25°60' W 079°38'2 4.9
2019-Sep-17 00:30N 26°02' W 079°39'2 5.0
2019-Sep-17 00:00N 26°04' W 079°41'6490.6
2019-Sep-17 00:00N 26°00' W 079°36'816.7 020 / 111012.610.8 29.026.231.0
2019-Sep-16 23:30N 26°06' W 079°42'2 4.9
2019-Sep-16 23:00N 26°08' W 079°44'3 6.8
2019-Sep-16 22:30N 26°07' W 079°48'3 6.8
2019-Sep-16 22:00N 26°07' W 079°51'4 7.2
2019-Sep-16 21:30N 26°07' W 079°55'4 7.5
2019-Sep-16 21:00N 26°06' W 079°59'4 7.5
2019-Sep-16 20:30N 26°05' W 080°04'3 6.3
2019-Sep-16 20:00N 26°05' W 080°07'0 0.1
2019-Sep-16 19:23N 26°05' W 080°07'0 0.0
2019-Sep-16 18:59N 26°05' W 080°07'0 0.0
2019-Sep-16 18:29N 26°05' W 080°07'0 0.0
2019-Sep-16 17:59N 26°05' W 080°07'0 0.0
2019-Sep-16 17:29N 26°05' W 080°07'0 0.0
2019-Sep-16 16:59N 26°05' W 080°07'0 0.0
2019-Sep-16 16:29N 26°05' W 080°07'0 0.0
2019-Sep-16 15:59N 26°05' W 080°07'0 0.0
2019-Sep-16 15:29N 26°05' W 080°07'0 0.0
2019-Sep-16 14:59N 26°05' W 080°07'0 0.0
2019-Sep-16 14:29N 26°05' W 080°07'0 0.0
2019-Sep-16 13:59N 26°05' W 080°07'0 0.0
2019-Sep-16 13:29N 26°05' W 080°07'0 0.0
2019-Sep-16 12:59N 26°05' W 080°07'0 0.0
2019-Sep-16 12:29N 26°05' W 080°07'0 0.0
2019-Sep-16 11:59N 26°05' W 080°07'0 0.0
2019-Sep-16 11:29N 26°05' W 080°07'0 0.0
2019-Sep-16 10:59N 26°05' W 080°07'0 0.7
2019-Sep-16 10:30N 26°06' W 080°07'4 8.7
2019-Sep-16 10:01N 26°05' W 080°02'714.8
2019-Sep-16 09:31N 25°60' W 079°56'815.1
2019-Sep-16 09:00N 25°54' W 079°51'816.7
2019-Sep-16 08:30N 25°46' W 079°48'917.4
2019-Sep-16 08:00N 25°38' W 079°46'917.9
2019-Sep-16 07:30N 25°29' W 079°45'917.6
2019-Sep-16 07:00N 25°20' W 079°46'  
2019-Sep-13 23:49N 20°27' W 087°02'310.0
2019-Sep-13 23:30N 20°29' W 086°60'1 2.3
2019-Sep-13 22:59N 20°29' W 086°59'0 0.0
2019-Sep-13 22:29N 20°29' W 086°59'0 0.0
2019-Sep-13 21:59N 20°29' W 086°59'0 0.0
2019-Sep-13 21:26N 20°29' W 086°59'0 0.0
2019-Sep-13 20:59N 20°29' W 086°59'0 0.0
2019-Sep-13 20:26N 20°29' W 086°59'0 0.0
2019-Sep-13 19:59N 20°29' W 086°59'0 0.0
2019-Sep-13 19:26N 20°29' W 086°59'0 0.0
2019-Sep-13 18:59N 20°29' W 086°59'0 0.0
2019-Sep-13 18:26N 20°29' W 086°59'0 0.0
2019-Sep-13 17:59N 20°29' W 086°59'0 0.0
2019-Sep-13 17:29N 20°29' W 086°59'0 0.0
2019-Sep-13 16:59N 20°29' W 086°59'0 0.0
2019-Sep-13 16:26N 20°29' W 086°59'0 0.0
2019-Sep-13 15:56N 20°29' W 086°59'0 0.0
2019-Sep-13 15:29N 20°29' W 086°59'0 0.0
2019-Sep-13 14:59N 20°29' W 086°59'0 0.0
2019-Sep-13 14:29N 20°29' W 086°59'0 0.0
2019-Sep-13 13:59N 20°29' W 086°59'0 0.0
2019-Sep-13 13:26N 20°29' W 086°59'0 0.0
2019-Sep-13 12:59N 20°29' W 086°59'0 0.0
2019-Sep-13 12:29N 20°29' W 086°59'0 0.0
2019-Sep-13 11:59N 20°29' W 086°59'0 0.1
2019-Sep-13 11:30N 20°29' W 086°59'3 6.8
2019-Sep-13 11:00N 20°32' W 086°59'611.7
2019-Sep-13 10:30N 20°37' W 086°55'49214.0
2019-Sep-11 23:20N 25°31' W 079°46'413.1
2019-Sep-11 23:00N 25°35' W 079°46'613.2
2019-Sep-11 22:30N 25°42' W 079°47'714.0
2019-Sep-11 22:01N 25°48' W 079°51'714.2
2019-Sep-11 21:31N 25°54' W 079°55'714.6
2019-Sep-11 21:00N 26°00' W 079°60'713.3
2019-Sep-11 20:30N 26°05' W 080°05'2 4.7
2019-Sep-11 20:00N 26°05' W 080°07'0 0.0
2019-Sep-11 19:28N 26°05' W 080°07'0 0.0
2019-Sep-11 18:58N 26°05' W 080°07'0 0.0
2019-Sep-11 18:28N 26°05' W 080°07'0 0.0
2019-Sep-11 17:58N 26°05' W 080°07'0 0.0
2019-Sep-11 17:28N 26°05' W 080°07'0 0.0
2019-Sep-11 16:58N 26°05' W 080°07'0 0.0
2019-Sep-11 16:28N 26°05' W 080°07'0 0.0
2019-Sep-11 15:58N 26°05' W 080°07'0 0.0
2019-Sep-11 15:28N 26°05' W 080°07'0 0.0
2019-Sep-11 14:58N 26°05' W 080°07'0 0.0
2019-Sep-11 14:28N 26°05' W 080°07'0 0.0
2019-Sep-11 13:58N 26°05' W 080°07'0 0.0
2019-Sep-11 13:28N 26°05' W 080°07'0 0.0
2019-Sep-11 12:58N 26°05' W 080°07'0 0.0
2019-Sep-11 12:28N 26°05' W 080°07'0 0.0
2019-Sep-11 11:58N 26°05' W 080°07'0 0.0
2019-Sep-11 11:25N 26°05' W 080°07'0 0.0
2019-Sep-11 10:58N 26°05' W 080°07'  

Dump ship's entire track history